createdAt,value
2023-03-19T00:00:28.571Z,8.73
2023-03-19T00:02:55.708Z,9.63
2023-03-19T00:05:22.744Z,9.47
2023-03-19T00:07:52.432Z,8.57
2023-03-19T00:10:19.057Z,9.43
2023-03-19T00:12:45.721Z,9.20
2023-03-19T00:15:14.592Z,9.27
2023-03-19T00:17:42.965Z,9.33
2023-03-19T00:20:11.670Z,9.53
2023-03-19T00:22:39.541Z,8.97
2023-03-19T00:25:08.097Z,9.07
2023-03-19T00:27:34.916Z,9.30
2023-03-19T00:30:02.513Z,9.73
2023-03-19T00:32:30.074Z,8.87
2023-03-19T00:34:57.337Z,8.97
2023-03-19T00:37:24.038Z,9.83
2023-03-19T00:39:50.700Z,9.43
2023-03-19T00:42:17.569Z,9.67
2023-03-19T00:44:44.175Z,10.27
2023-03-19T00:47:11.233Z,10.00
2023-03-19T00:49:37.837Z,10.37
2023-03-19T00:52:04.601Z,10.13
2023-03-19T00:54:32.354Z,9.73
2023-03-19T00:56:59.271Z,10.23
2023-03-19T00:59:26.166Z,9.60
2023-03-19T01:01:52.882Z,10.00
2023-03-19T01:04:20.313Z,10.17
2023-03-19T01:06:47.165Z,10.43
2023-03-19T01:09:13.810Z,9.73
2023-03-19T01:11:40.546Z,10.40
2023-03-19T01:14:07.992Z,10.13
2023-03-19T01:16:34.782Z,9.73
2023-03-19T01:19:02.546Z,10.17
2023-03-19T01:21:32.098Z,8.97
2023-03-19T01:23:59.488Z,9.77
2023-03-19T01:26:27.274Z,9.70
2023-03-19T01:28:54.143Z,10.03
2023-03-19T01:31:21.881Z,10.27
2023-03-19T01:33:48.782Z,9.23
2023-03-19T01:36:15.520Z,9.70
2023-03-19T01:38:42.568Z,9.70
2023-03-19T01:41:09.677Z,10.20
2023-03-19T01:43:36.683Z,9.60
2023-03-19T01:46:25.696Z,10.23
2023-03-19T01:48:57.355Z,9.73
2023-03-19T01:51:28.162Z,9.87
2023-03-19T01:54:00.466Z,9.77
2023-03-19T01:56:33.711Z,9.53
2023-03-19T01:59:11.195Z,10.10
2023-03-19T02:01:43.463Z,9.87
2023-03-19T02:04:10.681Z,9.43
2023-03-19T02:06:38.131Z,9.70
2023-03-19T02:09:04.951Z,9.17
2023-03-19T02:11:32.327Z,9.93
2023-03-19T02:13:58.955Z,9.70
2023-03-19T02:16:27.063Z,11.03
2023-03-19T02:18:54.202Z,10.53
2023-03-19T02:21:21.866Z,11.40
2023-03-19T02:24:03.187Z,10.00
2023-03-19T02:26:31.206Z,10.27
2023-03-19T02:28:57.873Z,10.53
2023-03-19T02:31:24.988Z,10.40
2023-03-19T02:34:05.416Z,10.10
2023-03-19T02:36:42.769Z,9.60
2023-03-19T02:39:18.612Z,9.07
2023-03-19T02:41:46.977Z,9.03
2023-03-19T02:44:13.629Z,9.03
2023-03-19T02:46:40.412Z,9.33
2023-03-19T02:49:07.041Z,9.57
2023-03-19T02:51:33.741Z,9.77
2023-03-19T02:54:00.897Z,9.30
2023-03-19T02:56:27.576Z,9.93
2023-03-19T02:58:54.281Z,9.73
2023-03-19T03:01:21.153Z,9.93
2023-03-19T03:03:47.810Z,9.50
2023-03-19T03:06:14.509Z,9.57
2023-03-19T03:08:41.225Z,9.67
2023-03-19T03:11:07.847Z,9.50
2023-03-19T03:13:34.541Z,9.87
2023-03-19T03:16:01.760Z,9.90
2023-03-19T03:18:28.566Z,9.37
2023-03-19T03:20:55.303Z,9.87
2023-03-19T03:23:22.060Z,9.40
2023-03-19T03:25:51.284Z,9.10
2023-03-19T03:28:19.237Z,8.70
2023-03-19T03:30:46.969Z,9.90
2023-03-19T03:33:13.868Z,9.13
2023-03-19T03:35:40.983Z,9.40
2023-03-19T03:38:07.677Z,9.00
2023-03-19T03:40:34.855Z,9.57
2023-03-19T03:43:02.408Z,8.63
2023-03-19T03:45:29.099Z,9.10
2023-03-19T03:47:56.138Z,8.60
2023-03-19T03:50:22.771Z,8.60
2023-03-19T03:52:49.377Z,8.20
2023-03-19T03:55:16.159Z,8.23
2023-03-19T03:57:42.896Z,8.00
2023-03-19T04:00:11.032Z,8.33
2023-03-19T04:02:37.690Z,8.43
2023-03-19T04:05:04.707Z,8.10
2023-03-19T04:07:32.052Z,7.43
2023-03-19T04:09:59.257Z,8.03
2023-03-19T04:12:26.249Z,7.83
2023-03-19T04:14:52.864Z,7.97
2023-03-19T04:17:19.645Z,7.77
2023-03-19T04:19:46.395Z,7.63
2023-03-19T04:22:14.084Z,7.90
2023-03-19T04:24:43.521Z,7.47
2023-03-19T04:27:10.352Z,7.40
2023-03-19T04:29:37.004Z,7.60
2023-03-19T04:32:04.157Z,6.83
2023-03-19T04:34:30.975Z,6.90
2023-03-19T04:36:58.645Z,7.20
2023-03-19T04:39:25.914Z,6.80
2023-03-19T04:41:52.559Z,7.03
2023-03-19T04:44:19.385Z,7.07
2023-03-19T04:46:46.350Z,7.07
2023-03-19T04:49:13.242Z,7.23
2023-03-19T04:51:40.690Z,6.80
2023-03-19T04:54:07.586Z,6.53
2023-03-19T04:56:34.360Z,7.17
2023-03-19T04:59:01.085Z,6.93
2023-03-19T05:01:27.721Z,6.37
2023-03-19T05:03:54.390Z,7.20
2023-03-19T05:06:21.321Z,7.17
2023-03-19T05:08:48.634Z,7.13
2023-03-19T05:11:15.289Z,7.30
2023-03-19T05:13:42.029Z,7.30
2023-03-19T05:16:09.334Z,7.17
2023-03-19T05:18:36.548Z,7.70
2023-03-19T05:21:04.788Z,7.40
2023-03-19T05:23:31.733Z,7.77
2023-03-19T05:26:00.903Z,7.90
2023-03-19T05:28:28.095Z,8.50
2023-03-19T05:30:54.774Z,7.83
2023-03-19T05:33:22.556Z,7.20
2023-03-19T05:35:49.251Z,7.73
2023-03-19T05:38:16.143Z,7.77
2023-03-19T05:40:43.172Z,7.33
2023-03-19T05:43:10.479Z,7.57
2023-03-19T05:45:37.893Z,8.40
2023-03-19T05:48:05.807Z,8.50
2023-03-19T05:50:33.794Z,8.07
2023-03-19T05:53:00.792Z,8.57
2023-03-19T05:55:27.456Z,8.43
2023-03-19T05:57:54.073Z,7.77
2023-03-19T06:00:21.241Z,8.17
2023-03-19T06:02:47.908Z,7.80
2023-03-19T06:05:14.616Z,8.43
2023-03-19T06:07:41.233Z,8.03
2023-03-19T06:10:08.564Z,7.50
2023-03-19T06:12:36.139Z,7.50
2023-03-19T06:15:03.200Z,7.80
2023-03-19T06:17:29.956Z,7.83
2023-03-19T06:19:56.859Z,7.60
2023-03-19T06:22:23.486Z,7.93
2023-03-19T06:24:50.348Z,7.57
2023-03-19T06:27:17.016Z,7.43
2023-03-19T06:29:43.753Z,7.23
2023-03-19T06:32:10.794Z,7.60
2023-03-19T06:34:37.432Z,7.47
2023-03-19T06:37:04.085Z,7.60
2023-03-19T06:39:31.515Z,8.17
2023-03-19T06:41:58.183Z,7.47
2023-03-19T06:44:25.377Z,7.20
2023-03-19T06:46:52.367Z,8.73
2023-03-19T06:49:19.287Z,7.93
2023-03-19T06:51:46.039Z,7.70
2023-03-19T06:54:12.704Z,8.10
2023-03-19T06:56:39.299Z,7.80
2023-03-19T06:59:05.927Z,7.43
2023-03-19T07:01:32.802Z,7.83
2023-03-19T07:03:59.495Z,7.30
2023-03-19T07:06:26.164Z,7.67
2023-03-19T07:08:52.823Z,8.17
2023-03-19T07:11:19.449Z,7.30
2023-03-19T07:13:46.526Z,6.70
2023-03-19T07:16:13.168Z,6.63
2023-03-19T07:18:39.885Z,5.87
2023-03-19T07:21:06.598Z,6.83
2023-03-19T07:23:33.300Z,5.50
2023-03-19T07:25:59.984Z,5.87
2023-03-19T07:28:26.739Z,5.30
2023-03-19T07:30:56.415Z,5.23
2023-03-19T07:33:23.216Z,4.70
2023-03-19T07:35:50.600Z,4.63
2023-03-19T07:38:17.362Z,4.20
2023-03-19T07:40:54.826Z,5.07
2023-03-19T07:43:26.029Z,5.43
2023-03-19T07:45:52.876Z,3.40
2023-03-19T07:48:19.758Z,4.87
2023-03-19T07:50:46.703Z,3.23
2023-03-19T07:53:13.354Z,3.30
2023-03-19T07:55:39.959Z,3.93
2023-03-19T07:58:06.791Z,3.47
2023-03-19T08:00:33.722Z,3.60
2023-03-19T08:03:00.803Z,3.60
2023-03-19T08:05:27.637Z,3.23
2023-03-19T08:07:54.241Z,3.60
2023-03-19T08:10:21.558Z,3.67
2023-03-19T08:12:48.814Z,3.73
2023-03-19T08:15:15.870Z,3.40
2023-03-19T08:17:42.543Z,2.97
2023-03-19T08:20:16.234Z,2.80
2023-03-19T08:22:43.732Z,2.50
2023-03-19T08:25:11.276Z,2.30
2023-03-19T08:27:38.062Z,2.30
2023-03-19T08:30:07.152Z,2.20
2023-03-19T08:32:34.188Z,2.20
2023-03-19T08:35:01.277Z,2.20
2023-03-19T08:37:28.036Z,2.47
2023-03-19T08:39:54.789Z,2.60
2023-03-19T08:42:22.654Z,2.27
2023-03-19T08:44:49.808Z,2.40
2023-03-19T08:47:16.683Z,2.40
2023-03-19T08:49:43.336Z,2.30
2023-03-19T08:52:10.093Z,2.40
2023-03-19T08:54:38.825Z,2.30
2023-03-19T08:57:06.041Z,2.30
2023-03-19T08:59:34.291Z,2.10
2023-03-19T09:02:01.632Z,2.20
2023-03-19T09:04:28.741Z,2.23
2023-03-19T09:06:56.055Z,2.50
2023-03-19T09:09:24.770Z,1.70
2023-03-19T09:11:51.766Z,2.10
2023-03-19T09:14:20.548Z,1.90
2023-03-19T09:16:47.255Z,1.83
2023-03-19T09:19:14.189Z,1.90
2023-03-19T09:21:41.128Z,2.07
2023-03-19T09:24:08.014Z,2.00
2023-03-19T09:26:34.956Z,2.00
2023-03-19T09:29:02.175Z,1.80
2023-03-19T09:31:29.950Z,2.20
2023-03-19T09:33:57.055Z,2.27
2023-03-19T09:36:24.136Z,2.00
2023-03-19T09:38:50.764Z,1.70
2023-03-19T09:41:35.028Z,1.67
2023-03-19T09:44:04.900Z,1.60
2023-03-19T09:46:52.650Z,1.80
2023-03-19T09:49:32.473Z,1.60
2023-03-19T09:52:11.203Z,2.13
2023-03-19T09:54:48.239Z,2.30
2023-03-19T09:57:15.478Z,2.00
2023-03-19T09:59:42.429Z,1.83
2023-03-19T10:02:29.390Z,1.90
2023-03-19T10:04:55.963Z,1.80
2023-03-19T10:07:48.478Z,1.90
2023-03-19T10:10:57.449Z,2.07
2023-03-19T10:13:45.547Z,2.03
2023-03-19T10:16:27.156Z,2.10
2023-03-19T10:18:58.903Z,2.03
2023-03-19T10:22:00.717Z,2.17
2023-03-19T10:24:40.486Z,2.27
2023-03-19T10:27:15.702Z,2.53
2023-03-19T10:29:43.411Z,1.97
2023-03-19T10:32:15.738Z,2.80
2023-03-19T10:34:50.973Z,2.53
2023-03-19T10:37:27.278Z,2.60
2023-03-19T10:39:59.529Z,2.37
2023-03-19T10:43:03.816Z,2.00
2023-03-19T10:45:38.850Z,2.10
2023-03-19T10:48:42.784Z,2.10
2023-03-19T10:51:18.828Z,1.97
2023-03-19T10:53:45.752Z,2.30
2023-03-19T10:56:23.050Z,2.00
2023-03-19T10:59:07.264Z,2.23
2023-03-19T11:01:35.038Z,2.17
2023-03-19T11:04:14.710Z,2.30
2023-03-19T11:06:41.664Z,2.47
2023-03-19T11:09:08.277Z,2.17
2023-03-19T11:11:53.446Z,2.67
2023-03-19T11:14:24.422Z,2.23
2023-03-19T11:16:59.220Z,2.80
2023-03-19T11:19:31.801Z,2.70
2023-03-19T11:22:09.415Z,2.23
2023-03-19T11:24:40.990Z,2.30
2023-03-19T11:27:09.862Z,1.90
2023-03-19T11:29:43.301Z,2.60
2023-03-19T11:32:22.719Z,2.50
2023-03-19T11:34:56.736Z,2.63
2023-03-19T11:37:29.725Z,2.80
2023-03-19T11:40:04.177Z,3.00
2023-03-19T11:42:49.051Z,2.63
2023-03-19T11:45:27.076Z,2.27
2023-03-19T11:48:15.627Z,2.57
2023-03-19T11:51:27.581Z,2.20
2023-03-19T11:54:14.303Z,2.20
2023-03-19T11:56:50.744Z,2.27
2023-03-19T11:59:49.483Z,2.20
2023-03-19T12:02:55.590Z,2.20
2023-03-19T12:05:47.302Z,2.80
2023-03-19T12:08:45.799Z,2.60
2023-03-19T12:11:12.433Z,2.77
2023-03-19T12:13:55.315Z,3.20
2023-03-19T12:16:45.727Z,2.80
2023-03-19T12:19:50.469Z,2.80
2023-03-19T12:22:29.181Z,3.00
2023-03-19T12:25:01.711Z,3.30
2023-03-19T12:27:45.973Z,2.90
2023-03-19T12:30:25.346Z,2.73
2023-03-19T12:33:10.916Z,3.17
2023-03-19T12:35:39.968Z,2.53
2023-03-19T12:38:32.451Z,2.63
2023-03-19T12:40:59.093Z,3.10
2023-03-19T12:43:37.085Z,2.90
2023-03-19T12:46:14.754Z,2.90
2023-03-19T12:49:11.011Z,2.23
2023-03-19T12:51:42.206Z,2.27
2023-03-19T12:54:23.507Z,2.60
2023-03-19T12:57:07.027Z,2.13
2023-03-19T12:59:40.650Z,3.10
2023-03-19T13:02:24.784Z,2.53
2023-03-19T13:05:18.289Z,2.37
2023-03-19T13:08:10.601Z,2.73
2023-03-19T13:10:37.642Z,2.57
2023-03-19T13:13:32.029Z,2.33
2023-03-19T13:16:18.905Z,2.50
2023-03-19T13:19:02.327Z,2.77
2023-03-19T13:21:33.487Z,2.50
2023-03-19T13:24:12.383Z,2.50
2023-03-19T13:26:40.029Z,2.30
2023-03-19T13:29:15.982Z,2.70
2023-03-19T13:31:43.320Z,2.40
2023-03-19T13:34:20.314Z,2.53
2023-03-19T13:37:10.300Z,2.60
2023-03-19T13:39:42.129Z,2.23
2023-03-19T13:42:38.246Z,2.07
2023-03-19T13:45:38.204Z,1.90
2023-03-19T13:48:24.953Z,2.27
2023-03-19T13:51:23.195Z,2.13
2023-03-19T13:54:08.133Z,2.17
2023-03-19T13:57:03.375Z,2.20
2023-03-19T13:59:37.916Z,2.40
2023-03-19T14:02:25.439Z,2.03
2023-03-19T14:05:10.346Z,2.00
2023-03-19T14:07:40.555Z,2.13
2023-03-19T14:10:14.551Z,1.87
2023-03-19T14:12:44.256Z,1.80
2023-03-19T14:15:10.853Z,1.93
2023-03-19T14:17:48.418Z,1.70
2023-03-19T14:20:16.703Z,1.70
2023-03-19T14:23:11.616Z,1.80
2023-03-19T14:26:07.799Z,1.80
2023-03-19T14:28:52.862Z,1.77
2023-03-19T14:31:34.258Z,1.50
2023-03-19T14:34:25.763Z,1.67
2023-03-19T14:37:09.020Z,1.60
2023-03-19T14:39:41.111Z,1.50
2023-03-19T14:42:26.164Z,2.00
2023-03-19T14:45:18.005Z,1.70
2023-03-19T14:48:26.275Z,1.30
2023-03-19T14:51:02.638Z,1.67
2023-03-19T14:53:43.793Z,1.40
2023-03-19T14:56:13.012Z,1.60
2023-03-19T14:58:48.828Z,1.80
2023-03-19T15:01:16.375Z,2.30
2023-03-19T15:03:43.162Z,2.10
2023-03-19T15:06:14.726Z,2.00
2023-03-19T15:08:42.721Z,2.37
2023-03-19T15:11:16.195Z,1.97
2023-03-19T15:14:01.495Z,1.73
2023-03-19T15:16:52.248Z,1.60
2023-03-19T15:19:27.347Z,1.70
2023-03-19T15:22:05.085Z,1.47
2023-03-19T15:24:31.825Z,1.50
2023-03-19T15:26:58.466Z,1.90
2023-03-19T15:29:37.870Z,1.60
2023-03-19T15:32:09.939Z,1.80
2023-03-19T15:34:43.244Z,1.53
2023-03-19T15:37:15.260Z,1.17
2023-03-19T15:39:48.244Z,1.47
2023-03-19T15:42:17.157Z,1.40
2023-03-19T15:44:49.411Z,1.30
2023-03-19T15:47:25.899Z,1.20
2023-03-19T15:50:01.368Z,1.30
2023-03-19T15:52:31.934Z,1.50
2023-03-19T15:55:01.687Z,1.50
2023-03-19T15:57:28.948Z,1.40
2023-03-19T15:59:57.089Z,1.30
2023-03-19T16:02:31.523Z,1.90
2023-03-19T16:05:21.478Z,1.63
2023-03-19T16:07:54.762Z,1.70
2023-03-19T16:10:37.256Z,1.40
2023-03-19T16:13:20.666Z,1.50
2023-03-19T16:16:20.077Z,1.90
2023-03-19T16:18:52.084Z,1.43
2023-03-19T16:21:20.837Z,1.10
2023-03-19T16:24:05.743Z,1.30
2023-03-19T16:26:46.567Z,1.40
2023-03-19T16:29:55.662Z,1.30
2023-03-19T16:32:27.256Z,1.60
2023-03-19T16:35:20.650Z,1.53
2023-03-19T16:37:49.242Z,1.50
2023-03-19T16:40:16.472Z,1.47
2023-03-19T16:42:48.063Z,1.70
2023-03-19T16:45:17.286Z,1.73
2023-03-19T16:47:44.854Z,1.50
2023-03-19T16:50:12.078Z,1.90
2023-03-19T16:52:39.843Z,1.70
2023-03-19T16:55:23.400Z,1.60
2023-03-19T16:58:10.945Z,1.70
2023-03-19T17:00:38.016Z,1.50
2023-03-19T17:03:12.275Z,1.77
2023-03-19T17:05:38.934Z,1.57
2023-03-19T17:08:05.658Z,1.93
2023-03-19T17:10:33.817Z,1.67
2023-03-19T17:13:04.116Z,1.70
2023-03-19T17:15:39.541Z,1.80
2023-03-19T17:18:35.033Z,1.53
2023-03-19T17:21:15.825Z,2.10
2023-03-19T17:23:42.592Z,2.13
2023-03-19T17:26:15.792Z,2.00
2023-03-19T17:28:42.740Z,2.13
2023-03-19T17:31:29.841Z,2.43
2023-03-19T17:34:03.917Z,2.20
2023-03-19T17:36:30.916Z,2.40
2023-03-19T17:38:57.646Z,2.10
2023-03-19T17:41:24.411Z,2.00
2023-03-19T17:43:51.132Z,2.30
2023-03-19T17:46:21.214Z,2.37
2023-03-19T17:48:49.506Z,2.37
2023-03-19T17:51:16.758Z,1.67
2023-03-19T17:53:47.847Z,2.30
2023-03-19T17:56:20.195Z,2.63
2023-03-19T17:58:49.842Z,2.20
2023-03-19T18:01:20.868Z,2.00
2023-03-19T18:03:50.898Z,2.37
2023-03-19T18:06:23.221Z,4.07
2023-03-19T18:08:50.870Z,3.10
2023-03-19T18:11:17.928Z,2.50
2023-03-19T18:13:44.683Z,1.90
2023-03-19T18:16:30.384Z,1.83
2023-03-19T18:19:01.090Z,1.60
2023-03-19T18:21:29.198Z,1.80
2023-03-19T18:23:57.193Z,1.80
2023-03-19T18:26:25.237Z,1.57
2023-03-19T18:28:51.930Z,1.83
2023-03-19T18:31:22.413Z,1.63
2023-03-19T18:33:56.680Z,1.23
2023-03-19T18:36:27.103Z,1.30
2023-03-19T18:38:55.092Z,1.03
2023-03-19T18:41:23.623Z,1.10
2023-03-19T18:43:50.536Z,1.17
2023-03-19T18:46:31.990Z,1.10
2023-03-19T18:49:17.426Z,1.33
2023-03-19T18:52:00.681Z,1.20
2023-03-19T18:54:30.643Z,1.00
2023-03-19T18:56:57.797Z,1.10
2023-03-19T18:59:28.250Z,1.40
2023-03-19T19:02:00.741Z,1.00
2023-03-19T19:04:29.687Z,1.00
2023-03-19T19:06:56.637Z,1.10
2023-03-19T19:09:23.379Z,1.20
2023-03-19T19:11:50.361Z,1.00
2023-03-19T19:14:23.384Z,1.13
2023-03-19T19:16:51.098Z,1.03
2023-03-19T19:19:22.629Z,1.10
2023-03-19T19:21:50.583Z,3.70
2023-03-19T19:24:17.664Z,1.73
2023-03-19T19:26:46.817Z,2.37
2023-03-19T19:29:25.209Z,2.40
2023-03-19T19:31:53.370Z,1.80
2023-03-19T19:34:20.682Z,2.00
2023-03-19T19:36:47.644Z,1.77
2023-03-19T19:39:18.601Z,1.87
2023-03-19T19:41:46.498Z,1.90
2023-03-19T19:44:20.237Z,15.43
2023-03-19T19:46:46.966Z,3.40
2023-03-19T19:49:15.424Z,2.30
2023-03-19T19:51:42.186Z,2.10
2023-03-19T19:54:08.954Z,2.40
2023-03-19T19:56:37.249Z,2.60
2023-03-19T19:59:06.490Z,2.30
2023-03-19T20:01:35.729Z,2.47
2023-03-19T20:04:05.464Z,2.60
2023-03-19T20:06:33.347Z,2.70
2023-03-19T20:09:00.048Z,3.00
2023-03-19T20:11:26.915Z,2.43
2023-03-19T20:13:55.543Z,2.30
2023-03-19T20:16:25.601Z,2.40
2023-03-19T20:18:54.587Z,2.10
2023-03-19T20:21:22.492Z,2.17
2023-03-19T20:23:52.805Z,2.27
2023-03-19T20:26:24.312Z,2.40
2023-03-19T20:28:51.442Z,2.10
2023-03-19T20:31:25.938Z,2.40
2023-03-19T20:33:53.167Z,2.33
2023-03-19T20:36:19.870Z,2.57
2023-03-19T20:38:46.729Z,2.50
2023-03-19T20:41:23.768Z,2.10
2023-03-19T20:43:52.064Z,2.47
2023-03-19T20:46:20.276Z,2.30
2023-03-19T20:48:47.828Z,2.23
2023-03-19T20:51:20.016Z,2.37
2023-03-19T20:53:48.361Z,2.17
2023-03-19T20:56:17.375Z,2.30
2023-03-19T20:58:45.434Z,2.47
2023-03-19T21:01:14.216Z,2.77
2023-03-19T21:03:41.437Z,2.63
2023-03-19T21:06:26.231Z,2.53
2023-03-19T21:08:57.513Z,2.87
2023-03-19T21:11:38.157Z,2.87
2023-03-19T21:14:05.870Z,3.03
2023-03-19T21:16:33.941Z,3.00
2023-03-19T21:19:00.837Z,3.10
2023-03-19T21:21:32.385Z,3.27
2023-03-19T21:24:14.294Z,3.10
2023-03-19T21:26:42.519Z,3.10
2023-03-19T21:29:20.300Z,3.17
2023-03-19T21:31:47.922Z,2.80
2023-03-19T21:34:15.136Z,3.07
2023-03-19T21:36:42.036Z,2.87
2023-03-19T21:39:08.863Z,3.20
2023-03-19T21:41:37.253Z,3.10
2023-03-19T21:44:07.877Z,3.80
2023-03-19T21:46:35.505Z,4.70
2023-03-19T21:49:02.499Z,4.10
2023-03-19T21:51:30.505Z,4.43
2023-03-19T21:53:58.313Z,4.17
2023-03-19T21:56:34.027Z,4.87
2023-03-19T21:59:06.587Z,4.03
2023-03-19T22:01:33.674Z,4.20
2023-03-19T22:04:00.485Z,4.10
2023-03-19T22:06:30.178Z,4.37
2023-03-19T22:08:56.847Z,4.07
2023-03-19T22:11:29.328Z,3.90
2023-03-19T22:14:13.643Z,4.40
2023-03-19T22:16:40.564Z,4.13
2023-03-19T22:19:07.243Z,4.70
2023-03-19T22:21:35.060Z,4.53
2023-03-19T22:24:01.693Z,4.80
2023-03-19T22:26:34.891Z,4.97
2023-03-19T22:29:05.972Z,4.77
2023-03-19T22:31:34.963Z,3.97
2023-03-19T22:34:01.993Z,4.23
2023-03-19T22:36:28.789Z,4.30
2023-03-19T22:38:55.609Z,4.23
2023-03-19T22:41:31.201Z,4.57
2023-03-19T22:44:00.011Z,5.33
2023-03-19T22:46:27.677Z,5.10
2023-03-19T22:48:54.649Z,4.33
2023-03-19T22:51:24.129Z,4.33
2023-03-19T22:53:51.831Z,4.00
2023-03-19T22:56:19.260Z,3.33
2023-03-19T22:58:46.810Z,3.93
2023-03-19T23:01:28.758Z,3.60
2023-03-19T23:03:56.537Z,3.30
2023-03-19T23:06:30.756Z,3.63
2023-03-19T23:08:58.306Z,4.00
2023-03-19T23:11:25.053Z,3.57
2023-03-19T23:13:51.946Z,3.63
2023-03-19T23:16:22.148Z,3.70
2023-03-19T23:18:49.486Z,3.33
2023-03-19T23:21:18.357Z,2.87
2023-03-19T23:23:45.833Z,3.13
2023-03-19T23:26:21.829Z,3.03
2023-03-19T23:28:48.626Z,3.40
2023-03-19T23:31:15.690Z,3.17
2023-03-19T23:33:42.302Z,2.93
2023-03-19T23:36:09.367Z,3.00
2023-03-19T23:38:36.843Z,2.43
2023-03-19T23:41:03.668Z,2.70
2023-03-19T23:43:31.984Z,2.87
2023-03-19T23:45:58.828Z,3.00
2023-03-19T23:48:34.702Z,2.80
2023-03-19T23:51:02.317Z,3.00
2023-03-19T23:53:30.063Z,2.70
2023-03-19T23:56:05.260Z,3.40
2023-03-19T23:58:40.077Z,3.30
